sensor_id;sensor_type;location;lat;lon;timestamp;P1;durP1;ratioP1;P2;durP2;ratioP2
69256;SDS011;56376;53.356;-1.748;2023-07-31T00:02:18;2.33;;;1.45;;
69256;SDS011;56376;53.356;-1.748;2023-07-31T00:04:44;1.48;;;1.20;;
69256;SDS011;56376;53.356;-1.748;2023-07-31T00:07:09;1.60;;;1.30;;
69256;SDS011;56376;53.356;-1.748;2023-07-31T00:09:34;2.22;;;1.63;;
69256;SDS011;56376;53.356;-1.748;2023-07-31T00:12:00;1.30;;;1.20;;
69256;SDS011;56376;53.356;-1.748;2023-07-31T00:14:25;1.08;;;1.00;;
69256;SDS011;56376;53.356;-1.748;2023-07-31T00:16:51;2.08;;;1.23;;
69256;SDS011;56376;53.356;-1.748;2023-07-31T00:19:19;1.65;;;1.33;;
69256;SDS011;56376;53.356;-1.748;2023-07-31T00:21:44;1.65;;;1.50;;
69256;SDS011;56376;53.356;-1.748;2023-07-31T00:24:10;1.30;;;1.20;;
69256;SDS011;56376;53.356;-1.748;2023-07-31T00:26:35;1.50;;;1.35;;
69256;SDS011;56376;53.356;-1.748;2023-07-31T00:29:01;1.20;;;1.10;;
69256;SDS011;56376;53.356;-1.748;2023-07-31T00:31:26;1.17;;;1.00;;
69256;SDS011;56376;53.356;-1.748;2023-07-31T00:33:51;1.58;;;0.82;;
69256;SDS011;56376;53.356;-1.748;2023-07-31T00:36:17;1.23;;;1.00;;
69256;SDS011;56376;53.356;-1.748;2023-07-31T00:38:43;1.15;;;1.05;;
69256;SDS011;56376;53.356;-1.748;2023-07-31T00:41:08;1.48;;;1.13;;
69256;SDS011;56376;53.356;-1.748;2023-07-31T00:43:34;1.00;;;0.90;;
69256;SDS011;56376;53.356;-1.748;2023-07-31T00:45:59;0.90;;;0.90;;
69256;SDS011;56376;53.356;-1.748;2023-07-31T00:48:25;0.93;;;0.88;;
69256;SDS011;56376;53.356;-1.748;2023-07-31T00:50:51;1.20;;;0.88;;
69256;SDS011;56376;53.356;-1.748;2023-07-31T00:53:16;1.10;;;1.00;;
69256;SDS011;56376;53.356;-1.748;2023-07-31T00:55:42;0.98;;;0.90;;
69256;SDS011;56376;53.356;-1.748;2023-07-31T00:58:08;1.27;;;0.73;;
69256;SDS011;56376;53.356;-1.748;2023-07-31T01:00:33;1.38;;;1.27;;
69256;SDS011;56376;53.356;-1.748;2023-07-31T01:02:59;0.93;;;0.90;;
69256;SDS011;56376;53.356;-1.748;2023-07-31T01:05:29;0.80;;;0.75;;
69256;SDS011;56376;53.356;-1.748;2023-07-31T01:08:07;0.80;;;0.80;;
69256;SDS011;56376;53.356;-1.748;2023-07-31T01:10:49;0.73;;;0.73;;
69256;SDS011;56376;53.356;-1.748;2023-07-31T01:13:19;1.73;;;0.77;;
69256;SDS011;56376;53.356;-1.748;2023-07-31T01:15:46;0.95;;;0.90;;
69256;SDS011;56376;53.356;-1.748;2023-07-31T01:18:11;1.20;;;0.90;;
69256;SDS011;56376;53.356;-1.748;2023-07-31T01:20:36;1.25;;;1.00;;
69256;SDS011;56376;53.356;-1.748;2023-07-31T01:31:23;0.80;;;0.80;;
69256;SDS011;56376;53.356;-1.748;2023-07-31T01:33:49;1.35;;;1.08;;
69256;SDS011;56376;53.356;-1.748;2023-07-31T01:36:17;1.75;;;0.88;;
69256;SDS011;56376;53.356;-1.748;2023-07-31T01:38:43;1.25;;;0.90;;
69256;SDS011;56376;53.356;-1.748;2023-07-31T01:41:08;1.00;;;0.95;;
69256;SDS011;56376;53.356;-1.748;2023-07-31T01:43:34;1.20;;;1.10;;
69256;SDS011;56376;53.356;-1.748;2023-07-31T01:45:59;1.27;;;1.00;;
69256;SDS011;56376;53.356;-1.748;2023-07-31T01:48:24;0.85;;;0.80;;
69256;SDS011;56376;53.356;-1.748;2023-07-31T01:50:50;0.80;;;0.80;;
69256;SDS011;56376;53.356;-1.748;2023-07-31T01:53:15;1.55;;;1.00;;
69256;SDS011;56376;53.356;-1.748;2023-07-31T01:55:41;1.02;;;0.98;;
69256;SDS011;56376;53.356;-1.748;2023-07-31T01:58:06;1.10;;;0.90;;
69256;SDS011;56376;53.356;-1.748;2023-07-31T02:00:31;1.10;;;0.90;;
69256;SDS011;56376;53.356;-1.748;2023-07-31T02:02:57;0.73;;;0.73;;
69256;SDS011;56376;53.356;-1.748;2023-07-31T02:05:22;1.05;;;1.00;;
69256;SDS011;56376;53.356;-1.748;2023-07-31T02:07:48;1.00;;;1.00;;
69256;SDS011;56376;53.356;-1.748;2023-07-31T02:10:13;0.80;;;0.80;;
69256;SDS011;56376;53.356;-1.748;2023-07-31T02:12:39;0.93;;;0.93;;
69256;SDS011;56376;53.356;-1.748;2023-07-31T02:15:04;0.80;;;0.80;;
69256;SDS011;56376;53.356;-1.748;2023-07-31T02:17:30;0.93;;;0.93;;
69256;SDS011;56376;53.356;-1.748;2023-07-31T02:19:55;0.80;;;0.80;;
69256;SDS011;56376;53.356;-1.748;2023-07-31T02:22:20;0.98;;;0.95;;
69256;SDS011;56376;53.356;-1.748;2023-07-31T02:24:46;0.80;;;0.80;;
69256;SDS011;56376;53.356;-1.748;2023-07-31T02:27:11;0.73;;;0.73;;
69256;SDS011;56376;53.356;-1.748;2023-07-31T02:29:36;0.70;;;0.70;;
69256;SDS011;56376;53.356;-1.748;2023-07-31T02:32:02;1.08;;;0.82;;
69256;SDS011;56376;53.356;-1.748;2023-07-31T02:34:28;0.80;;;0.80;;
69256;SDS011;56376;53.356;-1.748;2023-07-31T02:36:53;0.80;;;0.80;;
69256;SDS011;56376;53.356;-1.748;2023-07-31T02:39:18;0.80;;;0.80;;
69256;SDS011;56376;53.356;-1.748;2023-07-31T02:41:44;0.82;;;0.82;;
69256;SDS011;56376;53.356;-1.748;2023-07-31T02:44:09;0.68;;;0.68;;
69256;SDS011;56376;53.356;-1.748;2023-07-31T02:46:35;0.40;;;0.40;;
69256;SDS011;56376;53.356;-1.748;2023-07-31T02:49:01;0.55;;;0.55;;
69256;SDS011;56376;53.356;-1.748;2023-07-31T02:51:26;0.93;;;0.35;;
69256;SDS011;56376;53.356;-1.748;2023-07-31T02:53:51;0.40;;;0.40;;
69256;SDS011;56376;53.356;-1.748;2023-07-31T02:56:17;0.50;;;0.50;;
69256;SDS011;56376;53.356;-1.748;2023-07-31T02:58:42;0.43;;;0.43;;
69256;SDS011;56376;53.356;-1.748;2023-07-31T03:01:07;0.63;;;0.57;;
69256;SDS011;56376;53.356;-1.748;2023-07-31T03:03:33;0.95;;;0.50;;
69256;SDS011;56376;53.356;-1.748;2023-07-31T03:05:58;0.52;;;0.52;;
69256;SDS011;56376;53.356;-1.748;2023-07-31T03:08:24;0.60;;;0.60;;
69256;SDS011;56376;53.356;-1.748;2023-07-31T03:10:49;0.65;;;0.65;;
69256;SDS011;56376;53.356;-1.748;2023-07-31T03:13:14;0.75;;;0.57;;
69256;SDS011;56376;53.356;-1.748;2023-07-31T03:15:43;0.60;;;0.60;;
69256;SDS011;56376;53.356;-1.748;2023-07-31T03:18:08;0.70;;;0.70;;
69256;SDS011;56376;53.356;-1.748;2023-07-31T03:20:34;0.55;;;0.55;;
69256;SDS011;56376;53.356;-1.748;2023-07-31T03:22:59;0.77;;;0.77;;
69256;SDS011;56376;53.356;-1.748;2023-07-31T03:25:24;0.80;;;0.77;;
69256;SDS011;56376;53.356;-1.748;2023-07-31T03:27:50;0.80;;;0.80;;
69256;SDS011;56376;53.356;-1.748;2023-07-31T03:30:15;1.05;;;0.98;;
69256;SDS011;56376;53.356;-1.748;2023-07-31T03:32:41;0.93;;;0.90;;
69256;SDS011;56376;53.356;-1.748;2023-07-31T03:35:06;0.93;;;0.88;;
69256;SDS011;56376;53.356;-1.748;2023-07-31T03:37:32;0.90;;;0.90;;
69256;SDS011;56376;53.356;-1.748;2023-07-31T03:39:57;1.00;;;0.90;;
69256;SDS011;56376;53.356;-1.748;2023-07-31T03:42:23;0.80;;;0.80;;
69256;SDS011;56376;53.356;-1.748;2023-07-31T03:44:48;4.07;;;1.73;;
69256;SDS011;56376;53.356;-1.748;2023-07-31T03:47:13;0.75;;;0.75;;
69256;SDS011;56376;53.356;-1.748;2023-07-31T03:49:39;0.88;;;0.88;;
69256;SDS011;56376;53.356;-1.748;2023-07-31T03:52:04;0.70;;;0.70;;
69256;SDS011;56376;53.356;-1.748;2023-07-31T03:54:30;0.70;;;0.70;;
69256;SDS011;56376;53.356;-1.748;2023-07-31T03:56:55;0.98;;;0.98;;
69256;SDS011;56376;53.356;-1.748;2023-07-31T03:59:21;1.00;;;0.80;;
69256;SDS011;56376;53.356;-1.748;2023-07-31T04:01:46;0.80;;;0.80;;
69256;SDS011;56376;53.356;-1.748;2023-07-31T04:04:11;1.48;;;0.98;;
69256;SDS011;56376;53.356;-1.748;2023-07-31T04:06:37;1.30;;;1.20;;
69256;SDS011;56376;53.356;-1.748;2023-07-31T04:09:02;1.35;;;1.00;;
69256;SDS011;56376;53.356;-1.748;2023-07-31T04:11:28;1.15;;;1.00;;
69256;SDS011;56376;53.356;-1.748;2023-07-31T04:13:53;1.50;;;1.20;;
69256;SDS011;56376;53.356;-1.748;2023-07-31T04:16:19;1.38;;;1.27;;
69256;SDS011;56376;53.356;-1.748;2023-07-31T04:18:44;1.45;;;1.20;;
69256;SDS011;56376;53.356;-1.748;2023-07-31T04:21:10;1.38;;;1.00;;
69256;SDS011;56376;53.356;-1.748;2023-07-31T04:23:35;1.30;;;1.10;;
69256;SDS011;56376;53.356;-1.748;2023-07-31T04:26:00;1.40;;;1.30;;
69256;SDS011;56376;53.356;-1.748;2023-07-31T04:28:26;1.58;;;1.20;;
69256;SDS011;56376;53.356;-1.748;2023-07-31T04:30:51;1.40;;;1.30;;
69256;SDS011;56376;53.356;-1.748;2023-07-31T04:33:17;1.30;;;1.20;;
69256;SDS011;56376;53.356;-1.748;2023-07-31T04:35:48;1.27;;;1.10;;
69256;SDS011;56376;53.356;-1.748;2023-07-31T04:40:42;2.20;;;1.50;;
69256;SDS011;56376;53.356;-1.748;2023-07-31T04:43:08;1.52;;;1.15;;
69256;SDS011;56376;53.356;-1.748;2023-07-31T04:45:33;1.63;;;1.30;;
69256;SDS011;56376;53.356;-1.748;2023-07-31T04:47:59;1.42;;;1.00;;
69256;SDS011;56376;53.356;-1.748;2023-07-31T04:50:24;1.77;;;1.40;;
69256;SDS011;56376;53.356;-1.748;2023-07-31T04:52:49;1.50;;;1.20;;
69256;SDS011;56376;53.356;-1.748;2023-07-31T04:55:15;2.35;;;1.30;;
69256;SDS011;56376;53.356;-1.748;2023-07-31T04:57:40;1.60;;;1.40;;
69256;SDS011;56376;53.356;-1.748;2023-07-31T05:00:05;1.63;;;1.38;;
69256;SDS011;56376;53.356;-1.748;2023-07-31T05:02:31;1.20;;;1.10;;
69256;SDS011;56376;53.356;-1.748;2023-07-31T05:04:57;1.17;;;1.10;;
69256;SDS011;56376;53.356;-1.748;2023-07-31T05:07:22;1.10;;;1.00;;
69256;SDS011;56376;53.356;-1.748;2023-07-31T05:09:48;1.20;;;1.10;;
69256;SDS011;56376;53.356;-1.748;2023-07-31T05:12:13;0.73;;;0.70;;
69256;SDS011;56376;53.356;-1.748;2023-07-31T05:14:38;1.10;;;1.00;;
69256;SDS011;56376;53.356;-1.748;2023-07-31T05:17:04;1.38;;;1.27;;
69256;SDS011;56376;53.356;-1.748;2023-07-31T05:19:30;1.20;;;0.90;;
69256;SDS011;56376;53.356;-1.748;2023-07-31T05:21:55;2.67;;;1.33;;
69256;SDS011;56376;53.356;-1.748;2023-07-31T05:24:20;1.30;;;1.13;;
69256;SDS011;56376;53.356;-1.748;2023-07-31T05:26:46;2.20;;;1.10;;
69256;SDS011;56376;53.356;-1.748;2023-07-31T05:29:11;1.27;;;1.17;;
69256;SDS011;56376;53.356;-1.748;2023-07-31T05:31:36;1.33;;;1.20;;
69256;SDS011;56376;53.356;-1.748;2023-07-31T05:34:03;1.50;;;1.40;;
69256;SDS011;56376;53.356;-1.748;2023-07-31T05:36:29;1.35;;;1.25;;
69256;SDS011;56376;53.356;-1.748;2023-07-31T05:38:54;2.53;;;1.40;;
69256;SDS011;56376;53.356;-1.748;2023-07-31T05:41:19;1.65;;;1.38;;
69256;SDS011;56376;53.356;-1.748;2023-07-31T05:43:45;2.08;;;1.60;;
69256;SDS011;56376;53.356;-1.748;2023-07-31T05:46:10;1.50;;;1.40;;
69256;SDS011;56376;53.356;-1.748;2023-07-31T05:48:37;1.88;;;1.55;;
69256;SDS011;56376;53.356;-1.748;2023-07-31T05:51:02;2.70;;;2.25;;
69256;SDS011;56376;53.356;-1.748;2023-07-31T05:53:28;1.75;;;1.58;;
69256;SDS011;56376;53.356;-1.748;2023-07-31T05:55:53;2.17;;;1.98;;
69256;SDS011;56376;53.356;-1.748;2023-07-31T05:58:19;2.72;;;1.92;;
69256;SDS011;56376;53.356;-1.748;2023-07-31T06:00:44;3.17;;;2.17;;
69256;SDS011;56376;53.356;-1.748;2023-07-31T06:03:09;3.75;;;2.40;;
69256;SDS011;56376;53.356;-1.748;2023-07-31T06:05:35;3.00;;;2.50;;
69256;SDS011;56376;53.356;-1.748;2023-07-31T06:08:01;2.83;;;2.08;;
69256;SDS011;56376;53.356;-1.748;2023-07-31T06:10:26;3.08;;;1.85;;
69256;SDS011;56376;53.356;-1.748;2023-07-31T06:12:52;4.70;;;2.63;;
69256;SDS011;56376;53.356;-1.748;2023-07-31T06:15:17;3.72;;;2.75;;
69256;SDS011;56376;53.356;-1.748;2023-07-31T06:17:44;3.53;;;2.65;;
69256;SDS011;56376;53.356;-1.748;2023-07-31T06:20:10;3.40;;;2.80;;
69256;SDS011;56376;53.356;-1.748;2023-07-31T06:22:35;3.55;;;2.10;;
69256;SDS011;56376;53.356;-1.748;2023-07-31T06:25:01;3.60;;;2.53;;
69256;SDS011;56376;53.356;-1.748;2023-07-31T06:27:26;2.75;;;2.00;;
69256;SDS011;56376;53.356;-1.748;2023-07-31T06:29:52;3.30;;;2.53;;
69256;SDS011;56376;53.356;-1.748;2023-07-31T06:32:17;4.90;;;2.70;;
69256;SDS011;56376;53.356;-1.748;2023-07-31T06:34:42;3.45;;;2.58;;
69256;SDS011;56376;53.356;-1.748;2023-07-31T06:37:08;4.50;;;2.50;;
69256;SDS011;56376;53.356;-1.748;2023-07-31T06:39:33;3.90;;;2.72;;
69256;SDS011;56376;53.356;-1.748;2023-07-31T06:41:58;4.93;;;3.10;;
69256;SDS011;56376;53.356;-1.748;2023-07-31T06:44:24;4.82;;;3.33;;
69256;SDS011;56376;53.356;-1.748;2023-07-31T06:46:49;4.00;;;3.20;;
69256;SDS011;56376;53.356;-1.748;2023-07-31T06:49:14;3.30;;;2.53;;
69256;SDS011;56376;53.356;-1.748;2023-07-31T06:51:40;3.15;;;2.67;;
69256;SDS011;56376;53.356;-1.748;2023-07-31T06:54:07;6.93;;;3.03;;
69256;SDS011;56376;53.356;-1.748;2023-07-31T06:56:33;3.17;;;2.75;;
69256;SDS011;56376;53.356;-1.748;2023-07-31T06:58:59;4.70;;;3.17;;
69256;SDS011;56376;53.356;-1.748;2023-07-31T07:01:24;5.18;;;3.65;;
69256;SDS011;56376;53.356;-1.748;2023-07-31T07:03:49;5.38;;;3.30;;
69256;SDS011;56376;53.356;-1.748;2023-07-31T07:06:16;4.10;;;3.10;;
69256;SDS011;56376;53.356;-1.748;2023-07-31T07:08:44;4.25;;;3.35;;
69256;SDS011;56376;53.356;-1.748;2023-07-31T07:11:09;5.13;;;3.33;;
69256;SDS011;56376;53.356;-1.748;2023-07-31T07:13:34;5.05;;;3.17;;
69256;SDS011;56376;53.356;-1.748;2023-07-31T07:16:00;6.82;;;3.97;;
69256;SDS011;56376;53.356;-1.748;2023-07-31T07:18:25;5.80;;;4.00;;
69256;SDS011;56376;53.356;-1.748;2023-07-31T07:20:51;5.85;;;3.45;;
69256;SDS011;56376;53.356;-1.748;2023-07-31T07:23:17;5.05;;;3.33;;
69256;SDS011;56376;53.356;-1.748;2023-07-31T07:25:43;5.82;;;3.20;;
69256;SDS011;56376;53.356;-1.748;2023-07-31T07:28:09;5.53;;;3.97;;
69256;SDS011;56376;53.356;-1.748;2023-07-31T07:30:34;5.57;;;3.38;;
69256;SDS011;56376;53.356;-1.748;2023-07-31T07:33:00;5.65;;;3.53;;
69256;SDS011;56376;53.356;-1.748;2023-07-31T07:35:25;6.30;;;3.60;;
69256;SDS011;56376;53.356;-1.748;2023-07-31T07:37:51;5.88;;;3.90;;
69256;SDS011;56376;53.356;-1.748;2023-07-31T07:40:16;4.50;;;3.50;;
69256;SDS011;56376;53.356;-1.748;2023-07-31T07:42:41;4.43;;;3.10;;
69256;SDS011;56376;53.356;-1.748;2023-07-31T07:45:07;5.45;;;3.65;;
69256;SDS011;56376;53.356;-1.748;2023-07-31T07:47:33;4.68;;;3.40;;
69256;SDS011;56376;53.356;-1.748;2023-07-31T07:49:58;4.82;;;3.40;;
69256;SDS011;56376;53.356;-1.748;2023-07-31T07:52:24;4.30;;;3.28;;
69256;SDS011;56376;53.356;-1.748;2023-07-31T07:54:49;6.18;;;3.60;;
69256;SDS011;56376;53.356;-1.748;2023-07-31T07:57:15;5.80;;;3.40;;
69256;SDS011;56376;53.356;-1.748;2023-07-31T07:59:41;4.75;;;3.70;;
69256;SDS011;56376;53.356;-1.748;2023-07-31T08:02:07;5.78;;;3.55;;
69256;SDS011;56376;53.356;-1.748;2023-07-31T08:04:34;5.68;;;3.90;;
69256;SDS011;56376;53.356;-1.748;2023-07-31T08:07:00;4.82;;;3.30;;
69256;SDS011;56376;53.356;-1.748;2023-07-31T08:09:27;6.25;;;4.13;;
69256;SDS011;56376;53.356;-1.748;2023-07-31T08:11:54;5.88;;;3.63;;
69256;SDS011;56376;53.356;-1.748;2023-07-31T08:14:23;5.93;;;3.97;;
69256;SDS011;56376;53.356;-1.748;2023-07-31T08:16:50;8.05;;;3.95;;
69256;SDS011;56376;53.356;-1.748;2023-07-31T08:19:17;6.13;;;3.80;;
69256;SDS011;56376;53.356;-1.748;2023-07-31T08:21:45;5.22;;;4.25;;
69256;SDS011;56376;53.356;-1.748;2023-07-31T08:24:12;6.55;;;4.00;;
69256;SDS011;56376;53.356;-1.748;2023-07-31T08:26:39;5.80;;;4.18;;
69256;SDS011;56376;53.356;-1.748;2023-07-31T08:29:05;7.15;;;4.28;;
69256;SDS011;56376;53.356;-1.748;2023-07-31T08:31:31;6.40;;;3.22;;
69256;SDS011;56376;53.356;-1.748;2023-07-31T08:33:56;5.97;;;4.07;;
69256;SDS011;56376;53.356;-1.748;2023-07-31T08:36:22;5.13;;;3.55;;
69256;SDS011;56376;53.356;-1.748;2023-07-31T08:38:48;7.13;;;3.78;;
69256;SDS011;56376;53.356;-1.748;2023-07-31T08:41:14;4.85;;;3.40;;
69256;SDS011;56376;53.356;-1.748;2023-07-31T08:43:42;4.65;;;4.18;;
69256;SDS011;56376;53.356;-1.748;2023-07-31T08:46:10;5.85;;;4.18;;
69256;SDS011;56376;53.356;-1.748;2023-07-31T08:48:35;5.13;;;4.10;;
69256;SDS011;56376;53.356;-1.748;2023-07-31T08:51:03;5.50;;;4.10;;
69256;SDS011;56376;53.356;-1.748;2023-07-31T08:53:29;7.63;;;4.00;;
69256;SDS011;56376;53.356;-1.748;2023-07-31T08:55:54;6.38;;;3.63;;
69256;SDS011;56376;53.356;-1.748;2023-07-31T08:58:21;5.15;;;3.83;;
69256;SDS011;56376;53.356;-1.748;2023-07-31T09:00:48;5.13;;;3.88;;
69256;SDS011;56376;53.356;-1.748;2023-07-31T09:03:17;3.83;;;3.42;;
69256;SDS011;56376;53.356;-1.748;2023-07-31T09:05:44;5.55;;;4.15;;
69256;SDS011;56376;53.356;-1.748;2023-07-31T09:08:12;7.50;;;4.20;;
69256;SDS011;56376;53.356;-1.748;2023-07-31T09:10:42;6.32;;;4.45;;
69256;SDS011;56376;53.356;-1.748;2023-07-31T09:13:09;7.18;;;4.25;;
69256;SDS011;56376;53.356;-1.748;2023-07-31T09:15:35;4.00;;;3.20;;
69256;SDS011;56376;53.356;-1.748;2023-07-31T09:18:02;4.07;;;3.40;;
69256;SDS011;56376;53.356;-1.748;2023-07-31T09:20:28;5.53;;;3.97;;
69256;SDS011;56376;53.356;-1.748;2023-07-31T09:22:54;4.10;;;3.53;;
69256;SDS011;56376;53.356;-1.748;2023-07-31T09:25:26;5.38;;;3.45;;
69256;SDS011;56376;53.356;-1.748;2023-07-31T09:28:05;5.10;;;3.38;;
69256;SDS011;56376;53.356;-1.748;2023-07-31T09:30:43;4.80;;;2.92;;
69256;SDS011;56376;53.356;-1.748;2023-07-31T09:33:10;5.15;;;3.13;;
69256;SDS011;56376;53.356;-1.748;2023-07-31T09:35:35;5.50;;;3.17;;
69256;SDS011;56376;53.356;-1.748;2023-07-31T09:38:09;5.57;;;3.20;;
69256;SDS011;56376;53.356;-1.748;2023-07-31T09:40:39;3.85;;;2.90;;
69256;SDS011;56376;53.356;-1.748;2023-07-31T09:43:07;6.03;;;3.05;;
69256;SDS011;56376;53.356;-1.748;2023-07-31T09:45:35;3.72;;;2.85;;
69256;SDS011;56376;53.356;-1.748;2023-07-31T09:48:13;3.67;;;3.03;;
69256;SDS011;56376;53.356;-1.748;2023-07-31T09:50:41;3.92;;;2.72;;
69256;SDS011;56376;53.356;-1.748;2023-07-31T09:53:08;4.78;;;2.83;;
69256;SDS011;56376;53.356;-1.748;2023-07-31T09:55:34;5.55;;;3.60;;
69256;SDS011;56376;53.356;-1.748;2023-07-31T09:58:04;4.60;;;2.90;;
69256;SDS011;56376;53.356;-1.748;2023-07-31T10:00:34;4.15;;;2.63;;
69256;SDS011;56376;53.356;-1.748;2023-07-31T10:03:02;3.80;;;2.63;;
69256;SDS011;56376;53.356;-1.748;2023-07-31T10:05:31;3.00;;;2.50;;
69256;SDS011;56376;53.356;-1.748;2023-07-31T10:07:59;2.60;;;2.30;;
69256;SDS011;56376;53.356;-1.748;2023-07-31T10:10:25;3.13;;;2.70;;
69256;SDS011;56376;53.356;-1.748;2023-07-31T10:12:52;3.15;;;2.40;;
69256;SDS011;56376;53.356;-1.748;2023-07-31T10:15:18;4.20;;;2.60;;
69256;SDS011;56376;53.356;-1.748;2023-07-31T10:17:46;3.60;;;2.80;;
69256;SDS011;56376;53.356;-1.748;2023-07-31T10:20:13;3.35;;;2.40;;
69256;SDS011;56376;53.356;-1.748;2023-07-31T10:22:41;3.85;;;2.85;;
69256;SDS011;56376;53.356;-1.748;2023-07-31T10:25:07;4.65;;;2.60;;
69256;SDS011;56376;53.356;-1.748;2023-07-31T10:27:34;4.32;;;2.85;;
69256;SDS011;56376;53.356;-1.748;2023-07-31T10:30:01;3.67;;;2.50;;
69256;SDS011;56376;53.356;-1.748;2023-07-31T10:32:30;2.63;;;2.28;;
69256;SDS011;56376;53.356;-1.748;2023-07-31T10:34:56;4.00;;;2.92;;
69256;SDS011;56376;53.356;-1.748;2023-07-31T10:40:05;2.40;;;2.20;;
69256;SDS011;56376;53.356;-1.748;2023-07-31T10:42:35;3.88;;;2.58;;
69256;SDS011;56376;53.356;-1.748;2023-07-31T10:45:11;3.60;;;2.47;;
69256;SDS011;56376;53.356;-1.748;2023-07-31T10:50:13;3.77;;;2.80;;
69256;SDS011;56376;53.356;-1.748;2023-07-31T10:55:24;4.20;;;2.92;;
69256;SDS011;56376;53.356;-1.748;2023-07-31T10:58:13;2.47;;;2.28;;
69256;SDS011;56376;53.356;-1.748;2023-07-31T11:00:39;3.03;;;2.30;;
69256;SDS011;56376;53.356;-1.748;2023-07-31T11:03:07;4.70;;;2.30;;
69256;SDS011;56376;53.356;-1.748;2023-07-31T11:13:26;4.00;;;2.25;;
69256;SDS011;56376;53.356;-1.748;2023-07-31T11:15:54;3.47;;;2.53;;
69256;SDS011;56376;53.356;-1.748;2023-07-31T11:18:19;3.33;;;2.17;;
69256;SDS011;56376;53.356;-1.748;2023-07-31T11:20:45;5.07;;;2.20;;
69256;SDS011;56376;53.356;-1.748;2023-07-31T11:23:11;3.25;;;2.17;;
69256;SDS011;56376;53.356;-1.748;2023-07-31T11:25:39;3.05;;;2.20;;
69256;SDS011;56376;53.356;-1.748;2023-07-31T11:28:08;3.42;;;2.42;;
69256;SDS011;56376;53.356;-1.748;2023-07-31T11:30:34;2.28;;;2.00;;
69256;SDS011;56376;53.356;-1.748;2023-07-31T11:33:04;4.45;;;2.40;;
69256;SDS011;56376;53.356;-1.748;2023-07-31T11:35:34;2.90;;;2.20;;
69256;SDS011;56376;53.356;-1.748;2023-07-31T11:38:01;5.07;;;2.40;;
69256;SDS011;56376;53.356;-1.748;2023-07-31T11:40:27;4.95;;;2.80;;
69256;SDS011;56376;53.356;-1.748;2023-07-31T11:42:57;5.50;;;3.03;;
69256;SDS011;56376;53.356;-1.748;2023-07-31T11:45:26;3.80;;;2.63;;
69256;SDS011;56376;53.356;-1.748;2023-07-31T11:47:53;3.38;;;2.70;;
69256;SDS011;56376;53.356;-1.748;2023-07-31T11:50:19;5.57;;;3.30;;
69256;SDS011;56376;53.356;-1.748;2023-07-31T11:52:45;3.55;;;2.70;;
69256;SDS011;56376;53.356;-1.748;2023-07-31T11:55:14;3.50;;;2.30;;
69256;SDS011;56376;53.356;-1.748;2023-07-31T11:57:41;3.90;;;2.72;;
69256;SDS011;56376;53.356;-1.748;2023-07-31T12:00:09;3.03;;;2.40;;
69256;SDS011;56376;53.356;-1.748;2023-07-31T12:02:39;3.42;;;2.40;;
69256;SDS011;56376;53.356;-1.748;2023-07-31T12:05:05;3.88;;;2.50;;
69256;SDS011;56376;53.356;-1.748;2023-07-31T12:07:47;3.22;;;2.70;;
69256;SDS011;56376;53.356;-1.748;2023-07-31T12:12:55;6.25;;;3.20;;
69256;SDS011;56376;53.356;-1.748;2023-07-31T12:15:34;3.40;;;2.63;;
69256;SDS011;56376;53.356;-1.748;2023-07-31T12:18:07;3.45;;;2.20;;
69256;SDS011;56376;53.356;-1.748;2023-07-31T12:20:34;2.95;;;2.55;;
69256;SDS011;56376;53.356;-1.748;2023-07-31T12:23:00;4.05;;;2.80;;
69256;SDS011;56376;53.356;-1.748;2023-07-31T12:25:29;3.75;;;2.58;;
69256;SDS011;56376;53.356;-1.748;2023-07-31T12:27:56;3.78;;;2.13;;
69256;SDS011;56376;53.356;-1.748;2023-07-31T12:30:32;4.60;;;3.00;;
69256;SDS011;56376;53.356;-1.748;2023-07-31T12:33:14;4.40;;;2.97;;
69256;SDS011;56376;53.356;-1.748;2023-07-31T12:35:44;4.30;;;2.33;;
69256;SDS011;56376;53.356;-1.748;2023-07-31T12:38:11;5.72;;;2.80;;
69256;SDS011;56376;53.356;-1.748;2023-07-31T12:40:38;4.22;;;2.78;;
69256;SDS011;56376;53.356;-1.748;2023-07-31T12:43:05;5.25;;;3.08;;
69256;SDS011;56376;53.356;-1.748;2023-07-31T12:45:31;6.10;;;3.20;;
69256;SDS011;56376;53.356;-1.748;2023-07-31T12:47:58;3.60;;;2.78;;
69256;SDS011;56376;53.356;-1.748;2023-07-31T12:50:24;4.72;;;3.10;;
69256;SDS011;56376;53.356;-1.748;2023-07-31T12:52:50;4.28;;;3.03;;
69256;SDS011;56376;53.356;-1.748;2023-07-31T12:55:16;5.28;;;3.42;;
69256;SDS011;56376;53.356;-1.748;2023-07-31T12:57:43;5.57;;;3.00;;
69256;SDS011;56376;53.356;-1.748;2023-07-31T13:00:08;4.72;;;3.10;;
69256;SDS011;56376;53.356;-1.748;2023-07-31T13:02:34;6.53;;;3.03;;
69256;SDS011;56376;53.356;-1.748;2023-07-31T13:04:59;5.18;;;3.20;;
69256;SDS011;56376;53.356;-1.748;2023-07-31T13:07:25;4.82;;;3.30;;
69256;SDS011;56376;53.356;-1.748;2023-07-31T13:09:50;5.15;;;3.03;;
69256;SDS011;56376;53.356;-1.748;2023-07-31T13:12:16;8.60;;;3.80;;
69256;SDS011;56376;53.356;-1.748;2023-07-31T13:14:41;6.97;;;3.47;;
69256;SDS011;56376;53.356;-1.748;2023-07-31T13:17:07;5.63;;;3.00;;
69256;SDS011;56376;53.356;-1.748;2023-07-31T13:19:32;4.10;;;2.63;;
69256;SDS011;56376;53.356;-1.748;2023-07-31T13:21:58;5.78;;;3.20;;
69256;SDS011;56376;53.356;-1.748;2023-07-31T13:24:23;6.75;;;3.58;;
69256;SDS011;56376;53.356;-1.748;2023-07-31T13:26:48;6.00;;;3.22;;
69256;SDS011;56376;53.356;-1.748;2023-07-31T13:29:14;5.45;;;3.10;;
69256;SDS011;56376;53.356;-1.748;2023-07-31T13:31:39;4.10;;;3.05;;
69256;SDS011;56376;53.356;-1.748;2023-07-31T13:34:04;4.85;;;3.10;;
69256;SDS011;56376;53.356;-1.748;2023-07-31T13:36:30;4.63;;;3.17;;
69256;SDS011;56376;53.356;-1.748;2023-07-31T13:38:55;5.03;;;3.67;;
69256;SDS011;56376;53.356;-1.748;2023-07-31T13:41:21;6.20;;;3.50;;
69256;SDS011;56376;53.356;-1.748;2023-07-31T13:43:46;7.32;;;3.10;;
69256;SDS011;56376;53.356;-1.748;2023-07-31T13:46:11;7.75;;;3.25;;
69256;SDS011;56376;53.356;-1.748;2023-07-31T13:48:37;5.25;;;3.10;;
69256;SDS011;56376;53.356;-1.748;2023-07-31T13:51:02;5.38;;;3.10;;
69256;SDS011;56376;53.356;-1.748;2023-07-31T13:53:28;5.93;;;3.25;;
69256;SDS011;56376;53.356;-1.748;2023-07-31T13:55:53;5.70;;;3.42;;
69256;SDS011;56376;53.356;-1.748;2023-07-31T13:58:20;4.18;;;2.72;;
69256;SDS011;56376;53.356;-1.748;2023-07-31T14:00:46;6.45;;;3.05;;
69256;SDS011;56376;53.356;-1.748;2023-07-31T14:03:11;4.38;;;2.75;;
69256;SDS011;56376;53.356;-1.748;2023-07-31T14:05:37;4.60;;;2.33;;
69256;SDS011;56376;53.356;-1.748;2023-07-31T14:08:03;3.88;;;2.65;;
69256;SDS011;56376;53.356;-1.748;2023-07-31T14:10:28;3.80;;;2.95;;
69256;SDS011;56376;53.356;-1.748;2023-07-31T14:12:54;3.78;;;2.35;;
69256;SDS011;56376;53.356;-1.748;2023-07-31T14:15:19;3.15;;;2.20;;
69256;SDS011;56376;53.356;-1.748;2023-07-31T14:17:45;4.15;;;2.80;;
69256;SDS011;56376;53.356;-1.748;2023-07-31T14:20:11;5.78;;;2.40;;
69256;SDS011;56376;53.356;-1.748;2023-07-31T14:22:38;4.70;;;3.13;;
69256;SDS011;56376;53.356;-1.748;2023-07-31T14:25:03;4.72;;;2.70;;
69256;SDS011;56376;53.356;-1.748;2023-07-31T14:27:29;5.00;;;3.38;;
69256;SDS011;56376;53.356;-1.748;2023-07-31T14:29:55;4.38;;;2.50;;
69256;SDS011;56376;53.356;-1.748;2023-07-31T14:32:21;6.03;;;2.92;;
69256;SDS011;56376;53.356;-1.748;2023-07-31T14:34:51;3.40;;;2.30;;
69256;SDS011;56376;53.356;-1.748;2023-07-31T14:37:16;3.75;;;2.45;;
69256;SDS011;56376;53.356;-1.748;2023-07-31T14:39:42;4.13;;;2.13;;
69256;SDS011;56376;53.356;-1.748;2023-07-31T14:42:08;4.28;;;2.50;;
69256;SDS011;56376;53.356;-1.748;2023-07-31T14:44:34;3.83;;;2.30;;
69256;SDS011;56376;53.356;-1.748;2023-07-31T14:46:59;3.65;;;2.35;;
69256;SDS011;56376;53.356;-1.748;2023-07-31T14:49:25;3.90;;;2.50;;
69256;SDS011;56376;53.356;-1.748;2023-07-31T14:51:52;3.80;;;2.70;;
69256;SDS011;56376;53.356;-1.748;2023-07-31T14:54:17;3.00;;;2.22;;
69256;SDS011;56376;53.356;-1.748;2023-07-31T14:56:43;3.33;;;2.20;;
69256;SDS011;56376;53.356;-1.748;2023-07-31T14:59:08;4.50;;;2.80;;